CSZ9849 ZGHA-ZGGG
Flight info
| Callsign | CSZ9849 |
|---|---|
| Flight time | N/A |
| Altitude | 37100 |
| Route | UBM7W UBMOG W615 IDAXI R473 BEMAG/K0809S1160 V5 ENVIP ENVIP9 |
| Aircraft | A319/M-SDE3FGHIRWY/LB1 |
Departure
| Time | 2026-04-26 06:33 |
|---|---|
| Airport | Changsha Huanghua International Airport (ZGHA) |
Arrival
| Time | N/A |
|---|---|
| Airport | Guangzhou Baiyun International Airport (ZGGG) |
| Time | Latitude | Longitude | Altitude | Speed | Heading |
|---|---|---|---|---|---|
| 2026-04-26 05:59 | 28.18654 | 113.21543 | 211 ft | 0 kts | 356° |
| 2026-04-26 06:21 | 28.18643 | 113.21544 | 218 ft | 4 kts | 356° |
| 2026-04-26 06:21 | 28.18616 | 113.21546 | 216 ft | 4 kts | 1° |
| 2026-04-26 06:21 | 28.18590 | 113.21542 | 213 ft | 4 kts | 26° |
| 2026-04-26 06:21 | 28.18577 | 113.21529 | 211 ft | 1 kts | 87° |
| 2026-04-26 06:22 | 28.18577 | 113.21528 | 211 ft | 0 kts | 88° |
| 2026-04-26 06:24 | 28.18577 | 113.21533 | 211 ft | 4 kts | 87° |
| 2026-04-26 06:25 | 28.18580 | 113.21615 | 212 ft | 19 kts | 88° |
| 2026-04-26 06:25 | 28.18586 | 113.21753 | 212 ft | 13 kts | 87° |
| 2026-04-26 06:25 | 28.18616 | 113.21804 | 213 ft | 10 kts | 16° |
| 2026-04-26 06:25 | 28.18709 | 113.21798 | 212 ft | 17 kts | 356° |
| 2026-04-26 06:26 | 28.18840 | 113.21790 | 210 ft | 20 kts | 357° |
| 2026-04-26 06:26 | 28.18989 | 113.21781 | 215 ft | 23 kts | 357° |
| 2026-04-26 06:26 | 28.19153 | 113.21771 | 208 ft | 24 kts | 357° |
| 2026-04-26 06:26 | 28.19312 | 113.21762 | 209 ft | 24 kts | 357° |
| 2026-04-26 06:27 | 28.19469 | 113.21752 | 205 ft | 19 kts | 357° |
| 2026-04-26 06:27 | 28.19602 | 113.21745 | 206 ft | 20 kts | 356° |
| 2026-04-26 06:27 | 28.19753 | 113.21734 | 204 ft | 21 kts | 357° |
| 2026-04-26 06:27 | 28.19907 | 113.21724 | 207 ft | 23 kts | 357° |
| 2026-04-26 06:28 | 28.20079 | 113.21713 | 203 ft | 26 kts | 357° |
| 2026-04-26 06:28 | 28.20245 | 113.21704 | 202 ft | 22 kts | 355° |
| 2026-04-26 06:28 | 28.20400 | 113.21692 | 196 ft | 22 kts | 357° |
| 2026-04-26 06:28 | 28.20550 | 113.21685 | 199 ft | 15 kts | 356° |
| 2026-04-26 06:29 | 28.20609 | 113.21731 | 198 ft | 13 kts | 82° |
| 2026-04-26 06:29 | 28.20610 | 113.21847 | 192 ft | 16 kts | 95° |
| 2026-04-26 06:29 | 28.20615 | 113.21973 | 197 ft | 15 kts | 84° |
| 2026-04-26 06:29 | 28.20629 | 113.22049 | 209 ft | 4 kts | 56° |
| 2026-04-26 06:30 | 28.20650 | 113.22060 | 210 ft | 5 kts | 12° |
| 2026-04-26 06:30 | 28.20724 | 113.22058 | 216 ft | 17 kts | 357° |
| 2026-04-26 06:30 | 28.20840 | 113.22053 | 217 ft | 16 kts | 358° |
| 2026-04-26 06:30 | 28.20896 | 113.22101 | 223 ft | 8 kts | 83° |
| 2026-04-26 06:31 | 28.20900 | 113.22146 | 222 ft | 0 kts | 86° |
| 2026-04-26 06:31 | 28.20897 | 113.22193 | 222 ft | 22 kts | 103° |
| 2026-04-26 06:32 | 28.20817 | 113.22247 | 222 ft | 13 kts | 179° |
| 2026-04-26 06:32 | 28.20769 | 113.22249 | 221 ft | 0 kts | 176° |
| 2026-04-26 06:32 | 28.20643 | 113.22258 | 220 ft | 47 kts | 176° |
| 2026-04-26 06:32 | 28.20117 | 113.22290 | 218 ft | 104 kts | 176° |
| 2026-04-26 06:33 | 28.19212 | 113.22345 | 211 ft | 155 kts | 177° |
| 2026-04-26 06:33 | 28.18127 | 113.22429 | 845 ft | 153 kts | 178° |
| 2026-04-26 06:33 | 28.17077 | 113.22463 | 1572 ft | 153 kts | 179° |
| 2026-04-26 06:33 | 28.15994 | 113.22474 | 2106 ft | 163 kts | 179° |
| 2026-04-26 06:34 | 28.14760 | 113.22489 | 2285 ft | 195 kts | 179° |
| 2026-04-26 06:34 | 28.13320 | 113.22514 | 2365 ft | 216 kts | 179° |
| 2026-04-26 06:34 | 28.11794 | 113.22544 | 3202 ft | 218 kts | 179° |
| 2026-04-26 06:34 | 28.10289 | 113.22616 | 4198 ft | 217 kts | 170° |
| 2026-04-26 06:35 | 28.08980 | 113.23447 | 5114 ft | 224 kts | 131° |
| 2026-04-26 06:35 | 28.08401 | 113.25108 | 5989 ft | 234 kts | 100° |
| 2026-04-26 06:35 | 28.08240 | 113.26932 | 6803 ft | 238 kts | 96° |
| 2026-04-26 06:35 | 28.08141 | 113.28822 | 7667 ft | 243 kts | 94° |
| 2026-04-26 06:36 | 28.08053 | 113.30755 | 8495 ft | 249 kts | 94° |
| 2026-04-26 06:36 | 28.07957 | 113.32735 | 9309 ft | 255 kts | 93° |
| 2026-04-26 06:36 | 28.07843 | 113.34811 | 9843 ft | 276 kts | 94° |
| 2026-04-26 06:36 | 28.07709 | 113.37069 | 10155 ft | 300 kts | 94° |
| 2026-04-26 06:37 | 28.07555 | 113.39518 | 10442 ft | 324 kts | 94° |
| 2026-04-26 06:37 | 28.07382 | 113.42142 | 10857 ft | 342 kts | 94° |
| 2026-04-26 06:37 | 28.07201 | 113.44818 | 11533 ft | 348 kts | 94° |
| 2026-04-26 06:37 | 28.06958 | 113.47569 | 12253 ft | 354 kts | 96° |
| 2026-04-26 06:38 | 28.06640 | 113.50349 | 12957 ft | 359 kts | 97° |
| 2026-04-26 06:38 | 28.06281 | 113.53168 | 13682 ft | 364 kts | 98° |
| 2026-04-26 06:38 | 28.05906 | 113.56022 | 14288 ft | 369 kts | 98° |
| 2026-04-26 06:38 | 28.05531 | 113.58914 | 14912 ft | 374 kts | 98° |
| 2026-04-26 06:39 | 28.05150 | 113.61842 | 15535 ft | 378 kts | 100° |
| 2026-04-26 06:39 | 28.04311 | 113.64665 | 16115 ft | 381 kts | 120° |
| 2026-04-26 06:39 | 28.02717 | 113.67053 | 16719 ft | 382 kts | 139° |
| 2026-04-26 06:39 | 28.00542 | 113.68738 | 17328 ft | 379 kts | 159° |
| 2026-04-26 06:40 | 27.98068 | 113.69548 | 17879 ft | 374 kts | 177° |
| 2026-04-26 06:40 | 27.95480 | 113.69511 | 18428 ft | 372 kts | 188° |
| 2026-04-26 06:40 | 27.92887 | 113.69268 | 18974 ft | 375 kts | 188° |
| 2026-04-26 06:40 | 27.90274 | 113.69023 | 19499 ft | 378 kts | 188° |
| 2026-04-26 06:41 | 27.87638 | 113.68780 | 20039 ft | 382 kts | 188° |
| 2026-04-26 06:41 | 27.84977 | 113.68539 | 20583 ft | 385 kts | 188° |
| 2026-04-26 06:41 | 27.82295 | 113.68303 | 21120 ft | 389 kts | 188° |
| 2026-04-26 06:41 | 27.79587 | 113.68068 | 21649 ft | 392 kts | 188° |
| 2026-04-26 06:42 | 27.76890 | 113.67834 | 22187 ft | 396 kts | 188° |
| 2026-04-26 06:42 | 27.74132 | 113.67590 | 22726 ft | 399 kts | 188° |
| 2026-04-26 06:42 | 27.71349 | 113.67345 | 23277 ft | 403 kts | 188° |
| 2026-04-26 06:42 | 27.68543 | 113.67098 | 23752 ft | 406 kts | 188° |
| 2026-04-26 06:43 | 27.65716 | 113.66849 | 24206 ft | 409 kts | 188° |
| 2026-04-26 06:43 | 27.62858 | 113.66751 | 24667 ft | 414 kts | 182° |
| 2026-04-26 06:43 | 27.59968 | 113.66830 | 25126 ft | 417 kts | 182° |
| 2026-04-26 06:43 | 27.57057 | 113.66911 | 25578 ft | 419 kts | 182° |
| 2026-04-26 06:44 | 27.54140 | 113.66989 | 26033 ft | 421 kts | 183° |
| 2026-04-26 06:44 | 27.51237 | 113.67066 | 26474 ft | 424 kts | 182° |
| 2026-04-26 06:44 | 27.48279 | 113.67144 | 26912 ft | 426 kts | 183° |
| 2026-04-26 06:44 | 27.45307 | 113.67267 | 27340 ft | 430 kts | 178° |
| 2026-04-26 06:45 | 27.42327 | 113.67716 | 27756 ft | 433 kts | 176° |
| 2026-04-26 06:45 | 27.39335 | 113.68198 | 28035 ft | 437 kts | 176° |
| 2026-04-26 06:45 | 27.36324 | 113.68681 | 27907 ft | 436 kts | 176° |
| 2026-04-26 06:45 | 27.33329 | 113.69160 | 27847 ft | 434 kts | 176° |
| 2026-04-26 06:46 | 27.30337 | 113.69638 | 27771 ft | 435 kts | 176° |
| 2026-04-26 06:46 | 27.27346 | 113.70117 | 27598 ft | 434 kts | 176° |
| 2026-04-26 06:46 | 27.24363 | 113.70592 | 27529 ft | 432 kts | 176° |
| 2026-04-26 06:46 | 27.21423 | 113.71059 | 27549 ft | 433 kts | 176° |
| 2026-04-26 06:47 | 27.18439 | 113.71534 | 27547 ft | 433 kts | 176° |
| 2026-04-26 06:47 | 27.15455 | 113.72010 | 27547 ft | 433 kts | 176° |
| 2026-04-26 06:47 | 27.12472 | 113.72488 | 27541 ft | 433 kts | 175° |
| 2026-04-26 06:47 | 27.09492 | 113.72965 | 27548 ft | 434 kts | 176° |
| 2026-04-26 06:48 | 27.06497 | 113.73442 | 27547 ft | 434 kts | 176° |
| 2026-04-26 06:48 | 27.03508 | 113.73917 | 27546 ft | 434 kts | 176° |
| 2026-04-26 06:48 | 27.00521 | 113.74390 | 27545 ft | 434 kts | 176° |
| 2026-04-26 06:48 | 26.97545 | 113.74865 | 27542 ft | 426 kts | 176° |
| 2026-04-26 06:49 | 26.94660 | 113.75334 | 27545 ft | 412 kts | 176° |
| 2026-04-26 06:49 | 26.91908 | 113.75780 | 27544 ft | 399 kts | 176° |
| 2026-04-26 06:49 | 26.89188 | 113.76216 | 27544 ft | 392 kts | 176° |
| 2026-04-26 06:49 | 26.86493 | 113.76643 | 27544 ft | 390 kts | 176° |
| 2026-04-26 06:50 | 26.83809 | 113.77064 | 27539 ft | 390 kts | 176° |
| 2026-04-26 06:50 | 26.81124 | 113.77487 | 27544 ft | 389 kts | 176° |
| 2026-04-26 06:50 | 26.78443 | 113.77909 | 27545 ft | 389 kts | 176° |
| 2026-04-26 06:50 | 26.75759 | 113.78332 | 27544 ft | 389 kts | 176° |
| 2026-04-26 06:51 | 26.73095 | 113.78919 | 27549 ft | 393 kts | 168° |
| 2026-04-26 06:51 | 26.67863 | 113.80563 | 27546 ft | 393 kts | 168° |
| 2026-04-26 06:51 | 26.65232 | 113.81391 | 27547 ft | 393 kts | 168° |
| 2026-04-26 06:52 | 26.62600 | 113.82220 | 27546 ft | 393 kts | 168° |
| 2026-04-26 06:52 | 26.59965 | 113.83050 | 27547 ft | 393 kts | 168° |
| 2026-04-26 06:52 | 26.57333 | 113.83877 | 27545 ft | 393 kts | 168° |
| 2026-04-26 06:52 | 26.54696 | 113.84702 | 27539 ft | 393 kts | 168° |
| 2026-04-26 06:53 | 26.52059 | 113.85525 | 27538 ft | 393 kts | 168° |
| 2026-04-26 06:53 | 26.49422 | 113.86346 | 27542 ft | 394 kts | 168° |
| 2026-04-26 06:53 | 26.46779 | 113.87141 | 27546 ft | 394 kts | 169° |
| 2026-04-26 06:53 | 26.44162 | 113.87899 | 27557 ft | 394 kts | 169° |
| 2026-04-26 06:54 | 26.41507 | 113.88653 | 27560 ft | 393 kts | 169° |
| 2026-04-26 06:54 | 26.38855 | 113.89405 | 27566 ft | 394 kts | 169° |
| 2026-04-26 06:54 | 26.36200 | 113.90161 | 27566 ft | 394 kts | 169° |
| 2026-04-26 06:54 | 26.33547 | 113.90922 | 27565 ft | 393 kts | 169° |
| 2026-04-26 06:55 | 26.30899 | 113.91686 | 27561 ft | 393 kts | 169° |
| 2026-04-26 06:55 | 26.28251 | 113.92450 | 27564 ft | 394 kts | 169° |
| 2026-04-26 06:55 | 26.25602 | 113.93216 | 27563 ft | 393 kts | 169° |
| 2026-04-26 06:55 | 26.22953 | 113.93982 | 27559 ft | 393 kts | 169° |
| 2026-04-26 06:56 | 26.20340 | 113.94738 | 27561 ft | 393 kts | 169° |
| 2026-04-26 06:56 | 26.17697 | 113.95502 | 27557 ft | 393 kts | 169° |
| 2026-04-26 06:56 | 26.15050 | 113.96266 | 27556 ft | 393 kts | 169° |
| 2026-04-26 06:56 | 26.12405 | 113.97028 | 27557 ft | 393 kts | 169° |
| 2026-04-26 06:57 | 26.09760 | 113.97788 | 27557 ft | 393 kts | 169° |
| 2026-04-26 06:57 | 26.07112 | 113.98549 | 27558 ft | 393 kts | 169° |
| 2026-04-26 06:57 | 26.04466 | 113.99305 | 27557 ft | 392 kts | 171° |
| 2026-04-26 06:57 | 26.01790 | 113.99739 | 27555 ft | 387 kts | 182° |
| 2026-04-26 06:58 | 25.99125 | 113.99628 | 27551 ft | 381 kts | 192° |
| 2026-04-26 06:58 | 25.96514 | 113.99171 | 27538 ft | 380 kts | 193° |
| 2026-04-26 06:58 | 25.93936 | 113.98718 | 27536 ft | 380 kts | 193° |
| 2026-04-26 06:58 | 25.91320 | 113.98265 | 27536 ft | 381 kts | 193° |
| 2026-04-26 06:59 | 25.88704 | 113.97814 | 27533 ft | 381 kts | 193° |
| 2026-04-26 06:59 | 25.86086 | 113.97364 | 27540 ft | 381 kts | 193° |
| 2026-04-26 06:59 | 25.83459 | 113.96909 | 27547 ft | 382 kts | 192° |
| 2026-04-26 06:59 | 25.80828 | 113.96453 | 27544 ft | 383 kts | 193° |
| 2026-04-26 07:00 | 25.78193 | 113.95998 | 27543 ft | 383 kts | 193° |
| 2026-04-26 07:00 | 25.75557 | 113.95544 | 27545 ft | 383 kts | 193° |
| 2026-04-26 07:00 | 25.72925 | 113.95093 | 27549 ft | 382 kts | 193° |
| 2026-04-26 07:00 | 25.70333 | 113.94649 | 27539 ft | 382 kts | 193° |
| 2026-04-26 07:01 | 25.67698 | 113.94195 | 27281 ft | 383 kts | 192° |
| 2026-04-26 07:01 | 25.65067 | 113.93740 | 27065 ft | 382 kts | 192° |
| 2026-04-26 07:01 | 25.62437 | 113.93285 | 26857 ft | 384 kts | 192° |
| 2026-04-26 07:01 | 25.59800 | 113.92829 | 26495 ft | 384 kts | 193° |
| 2026-04-26 07:02 | 25.57160 | 113.92374 | 26131 ft | 383 kts | 193° |
| 2026-04-26 07:02 | 25.54533 | 113.91922 | 25772 ft | 381 kts | 193° |
| 2026-04-26 07:02 | 25.51922 | 113.91472 | 25420 ft | 380 kts | 193° |
| 2026-04-26 07:02 | 25.49309 | 113.91021 | 25074 ft | 380 kts | 193° |
| 2026-04-26 07:03 | 25.46698 | 113.90570 | 24733 ft | 380 kts | 193° |
| 2026-04-26 07:03 | 25.44086 | 113.90122 | 24391 ft | 380 kts | 193° |
| 2026-04-26 07:03 | 25.41505 | 113.89683 | 24053 ft | 381 kts | 192° |
| 2026-04-26 07:03 | 25.38884 | 113.89238 | 23719 ft | 381 kts | 192° |
| 2026-04-26 07:04 | 25.36265 | 113.88791 | 23353 ft | 381 kts | 192° |
| 2026-04-26 07:04 | 25.33644 | 113.88341 | 22965 ft | 382 kts | 192° |
| 2026-04-26 07:04 | 25.31032 | 113.87892 | 22570 ft | 378 kts | 192° |
| 2026-04-26 07:04 | 25.28451 | 113.87449 | 22186 ft | 374 kts | 192° |
| 2026-04-26 07:05 | 25.25898 | 113.87011 | 21803 ft | 369 kts | 192° |
| 2026-04-26 07:05 | 25.23376 | 113.86579 | 21434 ft | 364 kts | 192° |
| 2026-04-26 07:05 | 25.20882 | 113.86153 | 21066 ft | 361 kts | 192° |
| 2026-04-26 07:05 | 25.18406 | 113.85730 | 20702 ft | 360 kts | 192° |
| 2026-04-26 07:06 | 25.15968 | 113.85313 | 20347 ft | 359 kts | 192° |
| 2026-04-26 07:06 | 25.13494 | 113.84890 | 19987 ft | 359 kts | 191° |
| 2026-04-26 07:06 | 25.11050 | 113.84474 | 19698 ft | 351 kts | 192° |
| 2026-04-26 07:06 | 25.08668 | 113.84070 | 19644 ft | 342 kts | 192° |
| 2026-04-26 07:07 | 25.06319 | 113.83669 | 19655 ft | 341 kts | 192° |
| 2026-04-26 07:07 | 25.03972 | 113.83268 | 19656 ft | 341 kts | 192° |
| 2026-04-26 07:07 | 25.01631 | 113.82870 | 19658 ft | 341 kts | 192° |
| 2026-04-26 07:07 | 24.99286 | 113.82474 | 19658 ft | 341 kts | 192° |
| 2026-04-26 07:08 | 24.96939 | 113.82076 | 19660 ft | 341 kts | 192° |
| 2026-04-26 07:08 | 24.94625 | 113.81682 | 19656 ft | 341 kts | 192° |
| 2026-04-26 07:08 | 24.92280 | 113.81281 | 19657 ft | 341 kts | 192° |
| 2026-04-26 07:08 | 24.89936 | 113.80880 | 19657 ft | 341 kts | 192° |
| 2026-04-26 07:09 | 24.87592 | 113.80479 | 19657 ft | 341 kts | 192° |
| 2026-04-26 07:09 | 24.85251 | 113.80078 | 19658 ft | 341 kts | 191° |
| 2026-04-26 07:09 | 24.82906 | 113.79679 | 19657 ft | 341 kts | 191° |
| 2026-04-26 07:09 | 24.80560 | 113.79280 | 19657 ft | 341 kts | 191° |
| 2026-04-26 07:10 | 24.73564 | 113.78095 | 19661 ft | 341 kts | 191° |
| 2026-04-26 07:11 | 24.68862 | 113.77292 | 19662 ft | 341 kts | 191° |
| 2026-04-26 07:11 | 24.66521 | 113.76895 | 19662 ft | 341 kts | 191° |
| 2026-04-26 07:11 | 24.64179 | 113.76497 | 19665 ft | 341 kts | 191° |
| 2026-04-26 07:11 | 24.61829 | 113.76101 | 19665 ft | 342 kts | 191° |
| 2026-04-26 07:12 | 24.59478 | 113.75705 | 19664 ft | 341 kts | 191° |
| 2026-04-26 07:12 | 24.57133 | 113.75307 | 19663 ft | 341 kts | 191° |
| 2026-04-26 07:12 | 24.54781 | 113.74910 | 19665 ft | 341 kts | 191° |
| 2026-04-26 07:12 | 24.52440 | 113.74515 | 19665 ft | 340 kts | 191° |
| 2026-04-26 07:13 | 24.50127 | 113.74122 | 19660 ft | 341 kts | 191° |
| 2026-04-26 07:13 | 24.47783 | 113.73723 | 19660 ft | 341 kts | 191° |
| 2026-04-26 07:13 | 24.45458 | 113.73330 | 19660 ft | 337 kts | 191° |
| 2026-04-26 07:13 | 24.43147 | 113.72942 | 19663 ft | 336 kts | 191° |
| 2026-04-26 07:14 | 24.40839 | 113.72554 | 19666 ft | 336 kts | 191° |
| 2026-04-26 07:14 | 24.38531 | 113.72167 | 19662 ft | 335 kts | 191° |
| 2026-04-26 07:14 | 24.36225 | 113.71778 | 19664 ft | 335 kts | 191° |
| 2026-04-26 07:14 | 24.33918 | 113.71390 | 19667 ft | 336 kts | 191° |
| 2026-04-26 07:15 | 24.31607 | 113.71004 | 19599 ft | 337 kts | 191° |
| 2026-04-26 07:15 | 24.29293 | 113.70616 | 19301 ft | 336 kts | 191° |
| 2026-04-26 07:15 | 24.27017 | 113.70233 | 18970 ft | 336 kts | 191° |
| 2026-04-26 07:15 | 24.24709 | 113.69841 | 18627 ft | 336 kts | 191° |
| 2026-04-26 07:16 | 24.22399 | 113.69448 | 18291 ft | 336 kts | 191° |
| 2026-04-26 07:16 | 24.20086 | 113.69053 | 17909 ft | 337 kts | 191° |
| 2026-04-26 07:16 | 24.17767 | 113.68661 | 17523 ft | 337 kts | 191° |
| 2026-04-26 07:16 | 24.15450 | 113.68271 | 17143 ft | 337 kts | 191° |
| 2026-04-26 07:17 | 24.13145 | 113.67881 | 16773 ft | 333 kts | 191° |
| 2026-04-26 07:17 | 24.10884 | 113.67500 | 16650 ft | 324 kts | 191° |
| 2026-04-26 07:17 | 24.08662 | 113.67128 | 16666 ft | 323 kts | 191° |
| 2026-04-26 07:17 | 24.06445 | 113.66754 | 16669 ft | 322 kts | 191° |
| 2026-04-26 07:18 | 24.04258 | 113.66383 | 16667 ft | 322 kts | 191° |
| 2026-04-26 07:18 | 24.02046 | 113.66007 | 16659 ft | 322 kts | 191° |
| 2026-04-26 07:18 | 23.99833 | 113.65631 | 16666 ft | 322 kts | 191° |
| 2026-04-26 07:18 | 23.97615 | 113.65256 | 16667 ft | 322 kts | 191° |
| 2026-04-26 07:19 | 23.95400 | 113.64882 | 16631 ft | 323 kts | 191° |
| 2026-04-26 07:19 | 23.93177 | 113.64508 | 16274 ft | 323 kts | 191° |
| 2026-04-26 07:19 | 23.90961 | 113.64135 | 15907 ft | 321 kts | 191° |
| 2026-04-26 07:19 | 23.88762 | 113.63762 | 15546 ft | 319 kts | 191° |
| 2026-04-26 07:20 | 23.86573 | 113.63392 | 15196 ft | 317 kts | 191° |
| 2026-04-26 07:20 | 23.84428 | 113.63032 | 14852 ft | 316 kts | 191° |
| 2026-04-26 07:20 | 23.82265 | 113.62669 | 14492 ft | 314 kts | 191° |
| 2026-04-26 07:20 | 23.80155 | 113.62114 | 14147 ft | 310 kts | 200° |
| 2026-04-26 07:21 | 23.78179 | 113.61196 | 13831 ft | 306 kts | 210° |
| 2026-04-26 07:21 | 23.76375 | 113.59998 | 13754 ft | 303 kts | 214° |
| 2026-04-26 07:21 | 23.74584 | 113.58771 | 13766 ft | 304 kts | 213° |
| 2026-04-26 07:21 | 23.72783 | 113.57549 | 13767 ft | 305 kts | 213° |
| 2026-04-26 07:22 | 23.70976 | 113.56325 | 13770 ft | 306 kts | 213° |
| 2026-04-26 07:22 | 23.69166 | 113.55099 | 13768 ft | 306 kts | 213° |
| 2026-04-26 07:22 | 23.67381 | 113.53890 | 13696 ft | 307 kts | 213° |
| 2026-04-26 07:22 | 23.65564 | 113.52658 | 13303 ft | 307 kts | 213° |
| 2026-04-26 07:23 | 23.63756 | 113.51432 | 12922 ft | 306 kts | 213° |
| 2026-04-26 07:23 | 23.61953 | 113.50210 | 12544 ft | 304 kts | 213° |
| 2026-04-26 07:23 | 23.60140 | 113.49029 | 12172 ft | 303 kts | 208° |
| 2026-04-26 07:23 | 23.58190 | 113.48165 | 11812 ft | 303 kts | 198° |
| 2026-04-26 07:24 | 23.56145 | 113.47603 | 11443 ft | 302 kts | 195° |
| 2026-04-26 07:24 | 23.54110 | 113.47056 | 11088 ft | 301 kts | 195° |
| 2026-04-26 07:24 | 23.52079 | 113.46507 | 10735 ft | 300 kts | 195° |
| 2026-04-26 07:24 | 23.50051 | 113.45956 | 10372 ft | 300 kts | 195° |
| 2026-04-26 07:25 | 23.48059 | 113.45414 | 10026 ft | 298 kts | 195° |
| 2026-04-26 07:25 | 23.46047 | 113.44865 | 9669 ft | 298 kts | 195° |
| 2026-04-26 07:25 | 23.44043 | 113.44318 | 9292 ft | 297 kts | 195° |
| 2026-04-26 07:25 | 23.42694 | 113.43951 | 9038 ft | 295 kts | 195° |